SKPE/PEI METAR and TAF weather

Enter ICAO airport designator
Station Type Date Time Source
SKPE METAR 2021/03/01 23:00 UTC NOAA

SKPE 012300Z 11006KT 9000 VCSH FEW014TCU BKN080 20/19 Q1015 RETS RMK TCU VCSH SE/S/SW A2998


Station Type Date Time Source
SKPE Decoded METAR 2021/03/01 23:00 UTC NOAA

Pereira / Matecana, Colombia (SKPE) 04-49N 075-44W 1342M
Mar 01, 2021 - 06:00 PM EST / 2021.03.01 2300 UTC
Wind: from the ESE (110 degrees) at 7 MPH (6 KT):0
Visibility: 5 mile(s):0
Sky conditions: mostly cloudy
Weather: showers in the vicinity; thunder during the past hour; showers in the vicinity; Towering cumulus clouds observed
Temperature: 68 F (20 C)
Dew Point: 66 F (19 C)
Relative Humidity: 93%
Pressure (altimeter): 29.97 in. Hg (1015 hPa)
ob: SKPE 012300Z 11006KT 9000 VCSH FEW014TCU BKN080 20/19 Q1015 RETS RMK TCU VCSH SE/S/SW A2998
cycle: 23

Station Type Date Time Source
SKPE TAF 2021/03/01 18:42 UTC NOAA

TAF SKPE 011630Z 0118/0218 31006KT 9999 SCT017TCU SCT080
TEMPO 0118/0122 DZ PROB40
TEMPO 0122/0124 5000 DZRA
BECMG 0200/0202 VRB02KT SCT015 BKN080 PROB40
TEMPO 0205/0211 5000 DZRA SCT012 TX26/0119Z TN18/0211Z

Example: see airport list